Nebraska City, NE (68410)

6:41 AM CDT on September 29, 2016 (GMT -0500)
Nebraska City Municipal | | Change Station

Elev 1161 ft 40.61 °N, 95.86 °W | Updated 6 minutes ago

Clear
Clear
47 °F
Feels Like 47 °F
N
5
Wind Variable Wind from North

Today
High -- | Low -- °F
--% Chance of Precip.
Yesterday
High -- | Low -- °F
Precip. -- in
Pressure 30.39 in
Visibility 10.0 miles
Clouds Clear
Dew Point 46 °F
Humidity 95%
Rainfall 0.00 in
Snow Depth Not available.
7:18 AM 7:07 PM
Waning Crescent, 2% visible
METAR KAFK 291135Z AUTO 36004KT 10SM CLR 09/08 A3039 RMK AO2 T00850078
Pressure 30.39 in
Visibility 10.0 miles
Clouds Clear
Dew Point 46 °F
Humidity 95%
Rainfall 0.00 in
Snow Depth Not available.
7:18 AM 7:07 PM
Waning Crescent, 2% visible
METAR KAFK 291135Z AUTO 36004KT 10SM CLR 09/08 A3039 RMK AO2 T00850078

10-Day Weather Forecast

Almanac

Astronomy

Sep. 29, 2016 Rise Set
Actual Time
Civil Twilight
Nautical Twilight
Astronomical Twilight
Moon
Length of Visible Light
Length of Day
Tomorrow will be .
, % of the Moon is Illuminated

Today's Extremes

State Highs State Lows

Community

WunderPhotos

Upload Photos

1,942,463 photos uploaded!

WunderBlog® & News

Nearby

Air Quality

  Air Quality AQ Index Pollutant
Not available.

Snow Depth

Station Depth Elevation

Earthquake Activity

City Distance Mag. Time & Date
Minimum magnitude displayed is 2.5.

Coastal Water Temperatures

Place Temperature

Stations

Nearby Weather Stations

Station Location Temp. Windchill Dew Point Humidity Wind Precip. Elev Updated Type
                   

Watches & Warnings

There are currently no watches in effect.